KFOA

Flora Municipal Airport

Flora, Illinois, USA
METAR KFOA 220515Z AUTO 22004KT 10SM BKN110 21/19 A2971 RMK AO2 T02060191
Observed Flight Rules
Jun-22 @ 05:15 UTC (22 minutes ago) Visual Flight Rules
Wind Visibility Clouds
220° at 4 knots 10 miles
  • Broken at 11,000' AGL
Temperatures Readings
Current 21°C / 70°F
Dewpoint 19°C / 66°F
Humidity 88%
Altimeter 29.71" Hg
Pressure 1006 hPa
Elevation 144
METAR KFOA 220515Z AUTO 22004KT 10SM BKN110 21/19 A2971 RMK AO2 T02060191
Observed Flight Rules
Jun-22 @ 05:15 UTC
(22 minutes ago)
VFR
Wind Visibility
220° at 4 knots 10 miles
Clouds
  • Broken at 11,000' AGL
Temperature Dewpoint
21°C / 70°F 19°C / 66°F
Humidity Altimeter Pressure
88% 29.71" Hg 1006 hPa